Terminal Aerodrome Forecast
Issued by NWS

Home | Current Version | Previous Version | Text Only | Print | Product List | Glossary On
Versions: 1 2 3 4 5 6 7 8 9 10 11 12 13 14 15 16
000
FTUS44 KLZK 190500
TAFADF
TAF
KADF 190537Z 1906/2006 VRB04KT 6SM BR SCT025
      TEMPO 1906/1910 4SM BR BKN025
     FM191000 VRB03KT 2SM BR OVC005
     FM191400 10003KT 5SM BR SCT007 OVC015
     FM191800 12005KT P6SM SCT035
     FM200000 VRB03KT P6SM SCT250=

USA.gov is the U.S. government's official web portal to all federal, state and local government web resources and services.